Time;durP1;ratioP1;P1;durP2;ratioP2;P2;SDS_P1;SDS_P2;PMS_P1;PMS_P2;Temp;Humidity;BMP_temperature;BMP_pressure;BME280_temperature;BME280_humidity;BME280_pressure;Samples;Min_cycle;Max_cycle;Signal;HPM_P1;HPM_P2
2023/08/11 00:00:41;;;;;;;5.97;3.30;;;;;;;14.79;100.00;100590.00;5018548;28;20232;-68
2023/08/11 00:03:06;;;;;;;6.87;3.80;;;;;;;14.77;100.00;100592.72;5040986;28;20217;-68
2023/08/11 00:05:39;;;;;;;5.30;3.67;;;;;;;14.79;100.00;100593.44;5030301;28;20213;-68
2023/08/11 00:08:08;;;;;;;5.83;3.50;;;;;;;14.74;100.00;100587.72;5031909;28;20178;-68
2023/08/11 00:10:34;;;;;;;6.23;3.50;;;;;;;14.67;100.00;100587.28;5025868;28;20275;-67
2023/08/11 00:13:01;;;;;;;7.83;3.87;;;;;;;14.67;100.00;100592.47;5028334;28;20205;-67
2023/08/11 00:15:28;;;;;;;8.27;3.70;;;;;;;14.75;100.00;100596.31;5031171;28;20355;-67
2023/08/11 00:17:58;;;;;;;5.37;3.23;;;;;;;14.72;100.00;100596.50;5029741;28;20194;-67
2023/08/11 00:20:23;;;;;;;4.20;3.43;;;;;;;14.69;100.00;100592.38;5021831;28;20214;-68
2023/08/11 00:22:49;;;;;;;4.13;3.70;;;;;;;14.60;100.00;100598.94;5028490;28;20174;-68
2023/08/11 00:25:14;;;;;;;6.80;4.10;;;;;;;14.58;100.00;100600.78;5030125;28;20200;-67
2023/08/11 00:27:40;;;;;;;5.30;3.90;;;;;;;14.55;100.00;100595.81;5031088;28;20182;-67
2023/08/11 00:30:06;;;;;;;5.10;3.77;;;;;;;14.46;100.00;100593.78;5020597;28;20273;-67
2023/08/11 00:32:31;;;;;;;4.90;3.80;;;;;;;14.49;100.00;100602.19;5044496;28;20210;-69
2023/08/11 00:34:56;;;;;;;6.07;3.80;;;;;;;14.48;100.00;100597.13;5028900;28;20185;-68
2023/08/11 00:37:22;;;;;;;6.73;4.00;;;;;;;14.40;100.00;100602.78;5030606;28;20328;-68
2023/08/11 00:39:47;;;;;;;5.07;3.67;;;;;;;14.39;100.00;100600.28;5030359;28;20189;-67
2023/08/11 00:42:13;;;;;;;6.40;3.80;;;;;;;14.40;100.00;100607.09;5034702;28;20297;-68
2023/08/11 00:44:38;;;;;;;5.70;3.90;;;;;;;14.38;100.00;100603.81;5030229;28;20566;-68
2023/08/11 00:47:04;;;;;;;6.43;3.80;;;;;;;14.32;100.00;100599.84;5030467;28;20174;-67
2023/08/11 00:49:30;;;;;;;5.33;3.57;;;;;;;14.24;100.00;100596.88;5030755;28;20220;-66
2023/08/11 00:51:55;;;;;;;4.50;3.10;;;;;;;14.30;100.00;100599.94;5021658;28;20256;-67
2023/08/11 00:54:21;;;;;;;4.03;3.13;;;;;;;14.19;100.00;100592.84;5027538;28;20177;-67
2023/08/11 00:56:48;;;;;;;6.47;3.27;;;;;;;14.21;100.00;100597.91;5028937;28;20557;-67
2023/08/11 00:59:15;;;;;;;3.73;3.13;;;;;;;14.22;100.00;100593.56;5026652;28;20179;-67
2023/08/11 01:01:40;;;;;;;6.60;3.73;;;;;;;14.16;100.00;100597.38;5019147;28;20716;-67
2023/08/11 01:04:07;;;;;;;6.30;3.90;;;;;;;14.12;100.00;100595.91;5031278;28;20198;-67
2023/08/11 01:06:45;;;;;;;3.80;3.13;;;;;;;14.08;100.00;100597.84;5032455;28;20174;-68
2023/08/11 01:09:13;;;;;;;5.03;3.60;;;;;;;14.13;100.00;100594.97;5030540;28;20186;-67
2023/08/11 01:12:04;;;;;;;7.23;3.60;;;;;;;14.04;100.00;100591.16;5029126;28;20236;-67
2023/08/11 01:15:06;;;;;;;5.93;4.00;;;;;;;13.87;100.00;100589.63;5028212;28;20182;-67
2023/08/11 01:17:33;;;;;;;4.70;3.70;;;;;;;13.96;100.00;100588.25;5035013;28;20206;-67
2023/08/11 01:20:00;;;;;;;7.27;3.90;;;;;;;14.00;100.00;100584.53;5034822;28;20227;-67
2023/08/11 01:22:28;;;;;;;8.33;3.60;;;;;;;13.93;100.00;100588.41;5034489;28;20217;-67
2023/08/11 01:24:55;;;;;;;5.10;3.60;;;;;;;13.93;100.00;100589.25;5034417;28;20198;-67
2023/08/11 01:27:21;;;;;;;11.00;3.77;;;;;;;13.93;100.00;100583.25;5034927;28;20658;-68
2023/08/11 01:29:46;;;;;;;3.97;3.60;;;;;;;13.78;100.00;100587.59;5034341;28;20217;-68
2023/08/11 01:32:12;;;;;;;4.20;3.30;;;;;;;13.82;100.00;100584.72;5040091;28;20217;-68
2023/08/11 01:34:37;;;;;;;3.60;3.30;;;;;;;13.88;100.00;100579.19;5034522;28;20190;-67
2023/08/11 01:37:03;;;;;;;3.97;3.57;;;;;;;13.83;100.00;100582.97;5034823;28;20598;-67
2023/08/11 01:39:29;;;;;;;5.23;3.40;;;;;;;13.82;100.00;100589.09;5034387;28;20217;-67
2023/08/11 01:41:55;;;;;;;3.87;3.47;;;;;;;13.77;100.00;100581.59;5037893;28;20228;-67
2023/08/11 01:44:22;;;;;;;4.57;3.00;;;;;;;13.78;100.00;100585.00;5033917;28;20182;-67
2023/08/11 01:46:48;;;;;;;10.40;3.60;;;;;;;13.78;100.00;100582.41;5032654;28;20216;-67
2023/08/11 01:49:14;;;;;;;3.47;3.17;;;;;;;13.70;100.00;100575.13;5033538;28;20618;-67
2023/08/11 01:51:40;;;;;;;4.23;3.13;;;;;;;13.69;100.00;100582.06;5036576;28;20286;-67
2023/08/11 01:54:06;;;;;;;5.30;3.03;;;;;;;13.62;100.00;100577.34;5032687;28;20178;-67
2023/08/11 01:56:32;;;;;;;3.60;3.30;;;;;;;13.60;100.00;100584.38;5034458;28;20221;-68
2023/08/11 01:58:57;;;;;;;4.37;3.97;;;;;;;13.59;100.00;100572.38;5033941;28;20235;-67
2023/08/11 02:01:22;;;;;;;4.03;3.70;;;;;;;13.61;100.00;100583.44;5033952;28;20221;-67
2023/08/11 02:03:49;;;;;;;9.83;3.53;;;;;;;13.63;100.00;100573.84;5038817;28;20566;-67
2023/08/11 02:06:14;;;;;;;4.13;3.50;;;;;;;13.52;100.00;100577.91;5033848;28;20182;-67
2023/08/11 02:08:40;;;;;;;4.97;3.20;;;;;;;13.42;100.00;100579.38;5034024;28;20213;-67
2023/08/11 02:11:05;;;;;;;5.10;3.20;;;;;;;13.48;100.00;100576.44;5023540;28;20287;-67
2023/08/11 02:13:30;;;;;;;3.53;3.17;;;;;;;13.51;100.00;100576.22;5033263;28;20642;-67
2023/08/11 02:15:55;;;;;;;3.43;3.13;;;;;;;13.49;100.00;100572.06;5031709;28;20218;-67
2023/08/11 02:18:21;;;;;;;3.40;3.10;;;;;;;13.51;100.00;100568.47;5032446;28;20209;-67
2023/08/11 02:20:46;;;;;;;4.97;3.40;;;;;;;13.46;100.00;100572.25;5029610;28;20229;-68
2023/08/11 02:23:12;;;;;;;7.17;3.63;;;;;;;13.39;100.00;100569.19;5043033;28;20186;-67
2023/08/11 02:25:38;;;;;;;4.40;3.13;;;;;;;13.40;100.00;100569.09;5033190;28;20188;-67
2023/08/11 02:28:04;;;;;;;4.60;3.27;;;;;;;13.36;100.00;100569.38;5033572;28;20236;-67
2023/08/11 02:30:29;;;;;;;3.90;2.80;;;;;;;13.30;100.00;100569.72;5025375;28;20233;-66
2023/08/11 02:32:55;;;;;;;4.53;3.23;;;;;;;13.23;100.00;100571.81;5031735;28;20186;-67
2023/08/11 02:35:21;;;;;;;3.90;3.30;;;;;;;13.24;100.00;100573.47;5033294;28;20182;-67
2023/08/11 02:37:47;;;;;;;5.87;3.30;;;;;;;13.15;100.00;100563.69;5033244;28;20206;-67
2023/08/11 02:40:12;;;;;;;3.43;3.03;;;;;;;13.14;100.00;100570.59;5024599;28;20687;-67
2023/08/11 02:42:42;;;;;;;4.23;3.40;;;;;;;13.15;100.00;100567.09;5046505;28;20217;-67
2023/08/11 02:45:10;;;;;;;3.90;3.30;;;;;;;13.11;100.00;100575.09;5031992;28;20190;-67
2023/08/11 02:47:35;;;;;;;3.77;3.00;;;;;;;13.06;100.00;100573.63;5021411;28;20591;-67
2023/08/11 02:50:00;;;;;;;7.33;3.37;;;;;;;13.03;100.00;100571.22;5019757;28;20194;-69
2023/08/11 02:52:26;;;;;;;4.97;3.40;;;;;;;13.04;100.00;100572.88;5038547;28;20693;-68
2023/08/11 02:54:51;;;;;;;4.17;3.20;;;;;;;12.96;100.00;100569.91;5023235;28;20186;-68
2023/08/11 02:57:16;;;;;;;7.90;3.00;;;;;;;12.98;100.00;100565.47;5044431;28;20545;-68
2023/08/11 02:59:44;;;;;;;5.50;3.90;;;;;;;12.93;100.00;100575.25;5033147;28;20204;-68
2023/08/11 03:02:09;;;;;;;6.77;3.73;;;;;;;12.96;100.00;100572.50;5023227;28;20356;-68
2023/08/11 03:04:36;;;;;;;13.57;3.80;;;;;;;12.95;100.00;100572.56;5032715;28;20190;-68
2023/08/11 03:07:05;;;;;;;6.60;3.27;;;;;;;12.97;100.00;100568.97;5032937;28;20630;-69
2023/08/11 03:09:31;;;;;;;3.57;3.23;;;;;;;13.02;100.00;100579.06;5033174;28;20254;-68
2023/08/11 03:11:56;;;;;;;4.60;3.10;;;;;;;13.01;100.00;100579.97;5037023;28;20252;-68
2023/08/11 03:14:21;;;;;;;3.50;3.20;;;;;;;13.03;100.00;100580.72;5022515;28;20193;-67
2023/08/11 03:16:47;;;;;;;3.80;3.40;;;;;;;13.02;100.00;100582.47;5032404;28;20287;-67
2023/08/11 03:19:12;;;;;;;4.80;3.63;;;;;;;12.87;100.00;100580.75;5033195;28;20170;-68
2023/08/11 03:21:38;;;;;;;6.77;3.13;;;;;;;12.77;100.00;100577.84;5033821;28;20239;-67
2023/08/11 03:24:04;;;;;;;4.27;3.47;;;;;;;12.81;100.00;100579.34;5035199;28;20178;-68
2023/08/11 03:26:30;;;;;;;4.17;3.20;;;;;;;12.88;100.00;100580.66;5031093;28;20239;-67
2023/08/11 03:28:56;;;;;;;4.23;3.83;;;;;;;12.95;100.00;100585.47;5032201;28;20191;-68
2023/08/11 03:31:21;;;;;;;4.70;3.43;;;;;;;12.95;100.00;100580.31;5022811;28;20246;-69
2023/08/11 03:33:46;;;;;;;3.63;3.33;;;;;;;12.99;100.00;100585.22;5043873;28;20240;-68
2023/08/11 03:36:12;;;;;;;5.97;4.30;;;;;;;13.00;100.00;100578.28;5032083;28;20174;-68
2023/08/11 03:38:38;;;;;;;5.27;4.17;;;;;;;12.90;100.00;100573.66;5032688;28;20440;-69
2023/08/11 03:41:03;;;;;;;5.47;3.77;;;;;;;12.84;100.00;100573.19;5030015;28;20773;-68
2023/08/11 03:43:28;;;;;;;6.03;4.03;;;;;;;12.87;100.00;100578.19;5039901;28;20186;-67
2023/08/11 03:45:54;;;;;;;5.47;3.47;;;;;;;12.95;100.00;100581.16;5030430;28;20551;-68
2023/08/11 03:48:19;;;;;;;3.93;3.53;;;;;;;13.00;100.00;100581.72;5031092;28;20190;-68
2023/08/11 03:50:45;;;;;;;3.60;3.30;;;;;;;13.02;100.00;100582.47;5014447;28;20233;-68
2023/08/11 03:53:12;;;;;;;4.57;3.53;;;;;;;13.03;100.00;100578.13;5041153;28;20260;-68
2023/08/11 03:55:38;;;;;;;3.50;3.20;;;;;;;13.01;100.00;100585.13;5018934;28;20570;-68
2023/08/11 03:58:03;;;;;;;7.00;3.67;;;;;;;12.99;100.00;100587.00;5030871;28;20281;-69
2023/08/11 04:00:29;;;;;;;4.83;3.77;;;;;;;12.96;100.00;100590.59;5025412;28;20308;-68
2023/08/11 04:02:54;;;;;;;5.63;4.20;;;;;;;12.93;100.00;100582.19;5043719;28;20634;-68
2023/08/11 04:05:19;;;;;;;5.13;3.57;;;;;;;12.90;100.00;100586.59;5031459;28;20185;-68
2023/08/11 04:07:45;;;;;;;7.77;4.07;;;;;;;12.86;100.00;100589.41;5031786;28;20208;-68
2023/08/11 04:10:12;;;;;;;4.20;3.80;;;;;;;12.95;100.00;100590.66;5021204;28;20178;-68
2023/08/11 04:12:37;;;;;;;4.37;3.43;;;;;;;13.00;100.00;100592.06;5040699;28;20633;-68
2023/08/11 04:15:03;;;;;;;6.67;3.53;;;;;;;13.02;100.00;100597.13;5027162;28;20253;-69
2023/08/11 04:17:29;;;;;;;4.07;3.20;;;;;;;12.97;100.00;100592.22;5030791;28;20237;-68
2023/08/11 04:19:54;;;;;;;4.77;3.47;;;;;;;13.04;100.00;100601.28;5029514;28;20198;-68
2023/08/11 04:22:20;;;;;;;5.70;3.77;;;;;;;13.05;100.00;100590.03;5020037;28;20229;-68
2023/08/11 04:24:46;;;;;;;5.00;3.53;;;;;;;13.13;100.00;100591.34;5030996;28;20268;-69
2023/08/11 04:27:11;;;;;;;5.17;3.70;;;;;;;13.06;100.00;100599.47;5031439;28;20189;-69
2023/08/11 04:29:36;;;;;;;4.63;3.80;;;;;;;13.03;100.00;100589.28;5031472;28;20587;-68
2023/08/11 04:32:04;;;;;;;4.67;3.37;;;;;;;13.13;100.00;100593.94;5036412;28;20221;-68
2023/08/11 04:34:33;;;;;;;5.20;4.17;;;;;;;13.25;100.00;100593.25;5030873;28;20174;-68
2023/08/11 04:36:59;;;;;;;4.53;3.70;;;;;;;13.32;100.00;100589.38;5031570;28;20174;-67
2023/08/11 04:39:25;;;;;;;6.33;3.47;;;;;;;13.39;100.00;100595.03;5031201;28;20223;-67
2023/08/11 04:41:50;;;;;;;7.30;3.57;;;;;;;13.46;100.00;100587.75;5034022;28;20647;-69
2023/08/11 04:44:15;;;;;;;4.10;3.37;;;;;;;13.51;100.00;100583.97;5029453;28;20656;-68
2023/08/11 04:46:40;;;;;;;5.17;4.07;;;;;;;13.61;100.00;100593.78;5030324;28;20182;-68
2023/08/11 04:49:06;;;;;;;5.43;4.23;;;;;;;13.70;100.00;100591.47;5031528;28;20178;-68
2023/08/11 04:51:32;;;;;;;6.53;4.60;;;;;;;13.78;100.00;100605.69;5031691;28;20228;-68
2023/08/11 04:54:00;;;;;;;6.23;3.57;;;;;;;13.84;100.00;100595.81;5031735;28;20194;-68
2023/08/11 04:56:27;;;;;;;6.60;4.03;;;;;;;13.91;100.00;100596.28;5032319;28;20274;-68
2023/08/11 04:58:54;;;;;;;4.40;3.63;;;;;;;13.90;100.00;100597.19;5026919;28;20288;-68
2023/08/11 05:01:20;;;;;;;5.07;3.63;;;;;;;14.02;100.00;100598.22;5030762;28;20225;-68
2023/08/11 05:03:45;;;;;;;6.27;3.77;;;;;;;14.07;100.00;100601.34;5035686;28;20205;-68
2023/08/11 05:06:11;;;;;;;7.73;3.27;;;;;;;14.24;100.00;100597.72;5029537;28;20257;-66
2023/08/11 05:08:37;;;;;;;4.83;3.67;;;;;;;14.33;100.00;100602.31;5031031;28;20190;-67
2023/08/11 05:11:03;;;;;;;7.43;3.57;;;;;;;14.34;100.00;100598.00;5028930;28;20363;-67
2023/08/11 05:13:28;;;;;;;6.33;3.40;;;;;;;14.47;100.00;100601.44;5030246;28;20225;-67
2023/08/11 05:15:54;;;;;;;4.57;3.80;;;;;;;14.66;100.00;100603.75;5030907;28;20229;-68
2023/08/11 05:18:19;;;;;;;6.50;3.60;;;;;;;14.73;100.00;100605.94;5030723;28;20233;-70
2023/08/11 05:20:46;;;;;;;4.80;3.60;;;;;;;14.80;100.00;100615.00;5023098;28;20225;-66
2023/08/11 05:23:12;;;;;;;4.00;3.37;;;;;;;14.89;100.00;100608.38;5039955;28;20312;-67
2023/08/11 05:25:37;;;;;;;5.93;3.33;;;;;;;15.05;100.00;100616.00;5030262;28;20265;-67
2023/08/11 05:28:02;;;;;;;6.23;3.43;;;;;;;15.17;100.00;100607.41;5030539;28;20198;-68
2023/08/11 05:30:28;;;;;;;6.50;4.10;;;;;;;15.29;100.00;100609.19;5019104;28;20312;-68
2023/08/11 05:32:54;;;;;;;6.20;3.93;;;;;;;15.32;100.00;100611.56;5026001;28;20201;-67
2023/08/11 05:35:19;;;;;;;7.63;3.33;;;;;;;15.38;100.00;100612.09;5029707;28;20261;-68
2023/08/11 05:37:47;;;;;;;15.50;3.63;;;;;;;15.36;100.00;100613.97;5028705;28;20764;-68
2023/08/11 05:40:12;;;;;;;5.40;3.80;;;;;;;15.34;100.00;100616.66;5022035;28;20185;-67
2023/08/11 05:42:37;;;;;;;7.10;3.93;;;;;;;15.40;100.00;100615.44;5018037;28;20588;-67
2023/08/11 05:45:03;;;;;;;9.83;4.37;;;;;;;15.55;100.00;100619.56;5030521;28;20194;-66
2023/08/11 05:47:29;;;;;;;9.37;3.67;;;;;;;15.59;100.00;100626.22;5030065;28;20190;-67
2023/08/11 05:49:54;;;;;;;8.13;3.77;;;;;;;15.77;100.00;100618.94;5030372;28;20182;-67
2023/08/11 05:52:19;;;;;;;6.43;3.77;;;;;;;15.94;100.00;100617.00;5031272;28;20304;-66
2023/08/11 05:54:45;;;;;;;4.03;3.40;;;;;;;16.04;100.00;100617.19;5034188;28;20632;-67
2023/08/11 05:57:10;;;;;;;9.00;3.50;;;;;;;15.97;100.00;100621.97;5034284;28;20280;-67
2023/08/11 05:59:36;;;;;;;5.47;3.30;;;;;;;15.79;100.00;100624.88;5034180;28;20307;-67
2023/08/11 06:02:01;;;;;;;7.77;4.07;;;;;;;15.74;100.00;100618.31;5038969;28;20213;-68
2023/08/11 06:04:26;;;;;;;3.87;3.50;;;;;;;15.90;100.00;100619.00;5028868;28;20178;-67
2023/08/11 06:06:52;;;;;;;8.30;3.40;;;;;;;16.04;100.00;100620.63;5033784;28;20656;-67
2023/08/11 06:09:17;;;;;;;6.73;3.67;;;;;;;16.33;100.00;100622.13;5034004;28;20182;-67
2023/08/11 06:11:42;;;;;;;8.60;4.00;;;;;;;16.58;100.00;100623.78;5012219;28;20650;-67
2023/08/11 06:14:07;;;;;;;5.33;4.00;;;;;;;16.74;100.00;100624.34;5026637;28;20178;-67
2023/08/11 06:16:33;;;;;;;4.00;3.30;;;;;;;16.88;100.00;100625.97;5032219;28;20320;-67
2023/08/11 06:18:58;;;;;;;7.73;3.93;;;;;;;17.01;100.00;100620.72;5032603;28;20631;-72
2023/08/11 06:21:23;;;;;;;8.10;4.37;;;;;;;17.31;100.00;100627.19;5035315;28;20257;-81
2023/08/11 06:23:49;;;;;;;4.53;3.90;;;;;;;17.47;100.00;100626.84;5035274;28;20695;-78
2023/08/11 06:26:15;;;;;;;9.57;3.70;;;;;;;17.54;100.00;100632.44;5035255;28;20174;-80
2023/08/11 06:28:41;;;;;;;6.10;3.50;;;;;;;17.68;100.00;100623.59;5036684;28;20188;-80
2023/08/11 06:31:08;;;;;;;7.27;4.10;;;;;;;17.64;100.00;100625.59;5032913;28;20731;-80
2023/08/11 06:33:33;;;;;;;5.20;3.73;;;;;;;17.47;100.00;100620.84;5035676;28;20178;-79
2023/08/11 06:35:59;;;;;;;9.17;3.87;;;;;;;17.66;100.00;100618.50;5035443;28;20350;-80
2023/08/11 06:38:24;;;;;;;6.13;3.77;;;;;;;17.96;100.00;100619.72;5036861;28;20992;-81
2023/08/11 06:40:50;;;;;;;7.17;3.87;;;;;;;18.26;100.00;100625.25;5021727;28;20227;-82
2023/08/11 06:43:15;;;;;;;8.20;4.03;;;;;;;18.60;100.00;100622.56;5033139;28;20740;-77
2023/08/11 06:45:42;;;;;;;6.33;2.93;;;;;;;19.08;100.00;100627.38;5032627;28;20182;-80
2023/08/11 06:48:07;;;;;;;6.00;3.33;;;;;;;20.17;100.00;100632.22;5033490;28;20177;-78
2023/08/11 06:50:32;;;;;;;11.00;3.43;;;;;;;21.33;100.00;100632.41;5026129;28;20272;-81
2023/08/11 06:52:58;;;;;;;4.33;2.80;;;;;;;22.99;89.91;100628.13;5034754;28;20182;-78
2023/08/11 06:55:24;;;;;;;4.23;2.93;;;;;;;23.86;75.38;100632.59;5034805;28;20213;-80
2023/08/11 06:57:49;;;;;;;6.17;3.07;;;;;;;23.98;73.79;100635.81;5033893;28;20224;-76
2023/08/11 07:00:14;;;;;;;8.75;3.53;;;;;;;24.59;67.46;100631.19;5023742;28;20236;-79
2023/08/11 07:02:40;;;;;;;9.40;3.35;;;;;;;25.93;60.29;100641.41;5029268;28;20190;-81
2023/08/11 07:05:05;;;;;;;10.80;2.80;;;;;;;26.10;59.28;100647.47;5031041;28;20197;-81
2023/08/11 07:07:30;;;;;;;7.03;2.53;;;;;;;27.11;56.36;100657.16;5033108;28;20182;-81
2023/08/11 07:09:56;;;;;;;5.65;3.30;;;;;;;26.30;56.61;100650.47;5033326;28;20259;-80
2023/08/11 07:12:21;;;;;;;10.43;3.17;;;;;;;27.80;50.45;100653.50;5023299;28;20237;-80
2023/08/11 07:14:47;;;;;;;6.28;3.10;;;;;;;28.27;48.29;100652.25;5033102;28;20229;-78
2023/08/11 07:17:12;;;;;;;6.88;2.72;;;;;;;29.56;45.18;100657.59;5033878;28;20257;-77
2023/08/11 07:19:37;;;;;;;7.35;3.03;;;;;;;29.69;41.55;100652.38;5031536;28;20708;-76
2023/08/11 07:22:03;;;;;;;5.65;2.88;;;;;;;29.66;40.70;100650.13;5024027;28;20281;-76
2023/08/11 07:24:28;;;;;;;6.88;2.70;;;;;;;29.60;41.75;100651.72;5046270;28;20213;-76
2023/08/11 07:26:54;;;;;;;7.60;2.78;;;;;;;29.53;42.41;100652.72;5033022;28;20186;-80
2023/08/11 07:29:19;;;;;;;3.65;2.78;;;;;;;29.28;40.06;100653.94;5033139;28;20237;-76
2023/08/11 07:31:44;;;;;;;5.75;3.00;;;;;;;28.97;41.20;100655.16;5013234;28;20231;-80
2023/08/11 07:34:10;;;;;;;5.18;2.58;;;;;;;30.02;40.53;100653.53;5038632;28;20190;-78
2023/08/11 07:36:36;;;;;;;11.30;2.80;;;;;;;30.52;38.30;100662.06;5028098;28;20575;-78
2023/08/11 07:39:01;;;;;;;6.22;2.47;;;;;;;31.42;36.15;100652.88;5035482;28;20202;-77
2023/08/11 07:41:27;;;;;;;4.93;2.75;;;;;;;31.10;36.56;100657.19;5035180;28;20700;-78
2023/08/11 07:43:52;;;;;;;4.25;3.40;;;;;;;32.04;34.16;100660.44;5038269;28;20269;-80
2023/08/11 07:46:18;;;;;;;5.25;2.30;;;;;;;31.08;36.32;100656.59;5033148;28;20178;-78
2023/08/11 07:48:43;;;;;;;5.22;2.88;;;;;;;30.52;37.19;100661.25;5034840;28;20181;-78
2023/08/11 07:51:09;;;;;;;4.15;2.50;;;;;;;31.61;36.58;100653.81;5033201;28;20735;-79
2023/08/11 07:53:36;;;;;;;6.50;3.15;;;;;;;31.56;35.72;100658.97;5041403;28;20190;-79
2023/08/11 07:56:01;;;;;;;3.55;2.85;;;;;;;29.69;39.15;100654.22;5034500;28;20186;-77
2023/08/11 07:58:26;;;;;;;4.95;2.63;;;;;;;31.22;36.99;100655.53;5034951;28;20233;-77
2023/08/11 08:00:51;;;;;;;7.10;2.72;;;;;;;32.08;36.14;100660.81;5030252;28;20277;-78
2023/08/11 08:03:17;;;;;;;5.32;2.53;;;;;;;33.01;33.59;100659.38;5043026;28;20638;-79
2023/08/11 08:05:42;;;;;;;5.95;3.30;;;;;;;32.11;34.99;100658.53;5033947;28;20186;-78
2023/08/11 08:08:07;;;;;;;5.70;2.50;;;;;;;33.57;33.78;100660.25;5033276;28;20190;-79
2023/08/11 08:10:33;;;;;;;4.05;2.70;;;;;;;34.40;32.45;100673.19;5023144;28;20265;-77
2023/08/11 08:12:58;;;;;;;5.90;2.70;;;;;;;33.71;31.54;100673.44;5023264;28;20248;-78
2023/08/11 08:15:24;;;;;;;6.05;2.88;;;;;;;33.92;31.58;100674.84;5032848;28;20200;-79
2023/08/11 08:17:49;;;;;;;4.60;2.67;;;;;;;33.97;31.06;100672.31;5033690;28;20206;-75
2023/08/11 08:20:16;;;;;;;6.10;2.60;;;;;;;34.45;31.23;100670.66;5024220;28;20209;-77
2023/08/11 08:22:42;;;;;;;5.93;2.92;;;;;;;33.49;32.14;100667.75;5042926;28;20186;-78
2023/08/11 08:25:08;;;;;;;4.22;2.60;;;;;;;34.21;30.83;100667.91;5031661;28;20186;-81
2023/08/11 08:27:37;;;;;;;4.65;2.80;;;;;;;34.44;30.83;100669.03;5030919;28;20190;-81
2023/08/11 08:30:03;;;;;;;4.18;2.50;;;;;;;35.01;30.69;100678.41;5031883;28;20178;-79
2023/08/11 08:32:29;;;;;;;6.03;2.55;;;;;;;36.08;29.57;100670.97;5027012;28;20213;-78
2023/08/11 08:34:55;;;;;;;6.38;2.63;;;;;;;35.76;29.52;100666.06;5031596;28;20540;-80
2023/08/11 08:37:20;;;;;;;5.32;2.13;;;;;;;35.84;29.11;100662.22;5031913;28;20217;-81
2023/08/11 08:39:48;;;;;;;3.38;2.42;;;;;;;36.89;28.28;100669.13;5032210;28;20190;-76
2023/08/11 08:42:14;;;;;;;6.13;2.47;;;;;;;37.22;26.89;100670.91;5035918;28;20224;-77
2023/08/11 08:44:41;;;;;;;4.90;2.55;;;;;;;37.21;27.05;100663.94;5030660;28;20254;-79
2023/08/11 08:47:07;;;;;;;6.07;2.40;;;;;;;37.06;27.65;100666.41;5032832;28;20189;-80
2023/08/11 08:49:36;;;;;;;3.05;2.30;;;;;;;37.46;26.10;100665.34;5031640;28;20197;-80
2023/08/11 08:52:02;;;;;;;6.45;2.20;;;;;;;36.31;27.36;100659.34;5034556;28;20314;-80
2023/08/11 08:54:28;;;;;;;8.93;2.95;;;;;;;36.12;27.97;100652.56;5028481;28;20186;-78
2023/08/11 08:56:54;;;;;;;12.75;2.53;;;;;;;35.62;30.52;100646.00;5032760;28;20186;-81
2023/08/11 08:59:20;;;;;;;2.88;2.30;;;;;;;35.03;29.81;100652.25;5030293;28;20197;-79
2023/08/11 09:01:45;;;;;;;3.90;2.40;;;;;;;34.74;30.29;100644.91;5035671;28;20233;-82
2023/08/11 09:04:11;;;;;;;4.90;2.45;;;;;;;36.17;29.16;100645.44;5034086;28;20193;-81
2023/08/11 09:06:38;;;;;;;4.93;2.47;;;;;;;36.72;29.38;100647.66;5034791;28;20181;-79
2023/08/11 09:09:04;;;;;;;6.88;2.10;;;;;;;36.32;28.16;100647.56;5035754;28;20630;-78
2023/08/11 09:11:30;;;;;;;4.10;2.35;;;;;;;37.37;26.19;100651.56;5026372;28;20295;-82
2023/08/11 09:14:02;;;;;;;6.57;2.60;;;;;;;36.87;27.53;100645.25;5022719;28;20182;-77
2023/08/11 09:16:27;;;;;;;5.82;2.85;;;;;;;37.89;25.71;100647.59;5036857;28;20229;-77
2023/08/11 09:18:52;;;;;;;4.57;2.97;;;;;;;37.46;26.08;100643.88;5036218;28;20690;-79
2023/08/11 09:21:22;;;;;;;5.28;2.55;;;;;;;36.51;27.47;100639.34;5026576;28;20233;-80
2023/08/11 09:23:48;;;;;;;3.17;2.22;;;;;;;35.81;27.43;100630.56;5053214;28;20182;-81
2023/08/11 09:26:13;;;;;;;15.65;2.70;;;;;;;36.37;28.05;100636.16;5035309;28;20186;-81
2023/08/11 09:28:39;;;;;;;2.47;2.10;;;;;;;34.53;28.79;100640.13;5038705;28;20189;-80
2023/08/11 09:31:06;;;;;;;4.28;2.08;;;;;;;35.82;28.42;100633.00;5028374;28;20591;-78
2023/08/11 09:33:34;;;;;;;5.97;2.22;;;;;;;34.70;29.68;100641.06;5042275;28;20190;-76
2023/08/11 09:35:59;;;;;;;5.13;2.42;;;;;;;36.95;27.36;100631.44;5035558;28;20183;-79
2023/08/11 09:38:25;;;;;;;3.72;2.10;;;;;;;37.53;25.70;100635.66;5034782;28;20287;-79
2023/08/11 09:40:51;;;;;;;4.53;2.10;;;;;;;36.74;26.91;100637.53;5007021;28;20232;-77
2023/08/11 09:43:17;;;;;;;2.83;2.42;;;;;;;37.87;26.91;100635.50;5043250;28;20170;-77
2023/08/11 09:45:42;;;;;;;3.35;2.28;;;;;;;38.63;25.85;100634.53;5037286;28;20220;-78
2023/08/11 09:48:08;;;;;;;4.00;2.20;;;;;;;38.89;25.38;100634.72;5036937;28;20543;-81
2023/08/11 09:50:35;;;;;;;6.55;2.55;;;;;;;36.86;27.64;100632.91;5030917;28;20228;-74
2023/08/11 09:53:04;;;;;;;3.65;2.67;;;;;;;38.80;26.98;100637.09;5024532;28;20175;-74
2023/08/11 09:55:32;;;;;;;6.80;2.58;;;;;;;38.93;27.20;100640.38;5035515;28;20186;-78
2023/08/11 09:58:01;;;;;;;5.68;2.22;;;;;;;38.17;27.87;100629.59;5034509;28;20580;-77
2023/08/11 10:00:26;;;;;;;5.85;2.55;;;;;;;35.07;31.88;100632.03;5026640;28;20308;-77
2023/08/11 10:03:06;;;;;;;3.85;2.70;;;;;;;34.52;32.83;100635.81;5038339;28;20252;-78
2023/08/11 10:05:35;;;;;;;5.90;2.97;;;;;;;37.01;30.07;100634.19;5036971;28;20645;-79
2023/08/11 10:08:02;;;;;;;7.40;3.10;;;;;;;38.32;27.93;100634.31;5036364;28;20192;-78
2023/08/11 10:10:32;;;;;;;6.50;2.60;;;;;;;36.93;29.15;100624.69;5023145;28;20233;-80
2023/08/11 10:13:07;;;;;;;6.05;2.65;;;;;;;37.76;29.03;100627.31;5025659;28;20661;-80
2023/08/11 10:15:33;;;;;;;6.18;2.75;;;;;;;39.18;26.59;100632.41;5035088;28;20609;-80
2023/08/11 10:17:59;;;;;;;3.05;2.50;;;;;;;38.01;27.01;100634.03;5034824;28;20279;-78
2023/08/11 10:20:25;;;;;;;15.27;3.58;;;;;;;37.07;29.23;100625.94;5026748;28;20306;-79
2023/08/11 10:22:51;;;;;;;2.13;2.03;;;;;;;36.05;29.40;100623.28;5041959;28;20187;-80
2023/08/11 10:25:17;;;;;;;4.85;2.53;;;;;;;35.28;30.85;100624.44;5038053;28;20240;-80
2023/08/11 10:27:43;;;;;;;6.55;4.65;;;;;;;35.71;30.86;100620.50;5035814;28;20268;-80
2023/08/11 10:30:12;;;;;;;4.28;2.42;;;;;;;36.18;29.65;100620.31;5022747;28;20277;-80
2023/08/11 10:32:38;;;;;;;5.97;2.20;;;;;;;37.14;28.47;100623.09;5045202;28;20206;-79
2023/08/11 10:35:06;;;;;;;5.97;2.42;;;;;;;39.25;27.86;100618.78;5034275;28;20188;-81
2023/08/11 10:37:32;;;;;;;3.83;2.10;;;;;;;37.54;27.88;100618.50;5034764;28;20210;-78
2023/08/11 10:40:11;;;;;;;3.65;1.88;;;;;;;36.45;29.37;100618.88;5033726;28;20496;-80
2023/08/11 10:42:37;;;;;;;3.00;2.03;;;;;;;36.61;27.83;100607.31;5020301;28;20222;-78
2023/08/11 10:45:11;;;;;;;4.72;2.00;;;;;;;37.37;27.29;100607.84;5033013;28;20236;-79
2023/08/11 10:47:38;;;;;;;3.70;2.10;;;;;;;37.59;28.73;100605.94;5035113;28;20189;-78
2023/08/11 10:50:06;;;;;;;4.90;2.40;;;;;;;36.44;30.43;100607.34;5026918;28;20213;-78
2023/08/11 10:52:34;;;;;;;7.45;2.20;;;;;;;33.50;32.35;100603.53;5049427;28;20206;-78
2023/08/11 10:55:02;;;;;;;3.50;2.22;;;;;;;32.79;34.41;100601.16;5033788;28;20190;-79
2023/08/11 10:57:30;;;;;;;6.32;2.45;;;;;;;31.83;35.20;100595.88;5032139;28;20347;-78
2023/08/11 10:59:55;;;;;;;4.90;2.38;;;;;;;30.51;38.48;100594.06;5033101;28;20193;-78
2023/08/11 11:02:21;;;;;;;3.08;2.30;;;;;;;28.92;42.48;100586.06;5038098;28;20225;-78
2023/08/11 11:04:46;;;;;;;5.97;2.78;;;;;;;28.12;45.47;100580.06;5033646;28;20186;-79
2023/08/11 11:07:16;;;;;;;5.68;2.50;;;;;;;28.69;51.46;100580.19;5033104;28;20185;-79
2023/08/11 11:09:42;;;;;;;2.88;2.47;;;;;;;29.03;48.78;100573.31;5034725;28;20192;-76
2023/08/11 11:12:07;;;;;;;3.15;2.25;;;;;;;29.07;48.49;100574.56;5013380;28;20316;-77
2023/08/11 11:14:32;;;;;;;2.85;2.15;;;;;;;28.89;48.01;100567.09;5034477;28;20644;-76